Hua Hin, Thailand
Current Conditions -  °F | °C
As of 11:00 PM on Thursday 23 Oct 2014 (Local Time) from VTBU Reporting Station
Haze Haze  
Wind Chill: 26°   Ceiling: 30000
Heat Index: 28°   Visibility: 1.8mi
Dew Point: 24°   Wind: 2mph
Humidity: 89%   Direction: 240°WSW
Pressure: 29.88"   Gusts: NA
Location:  12.57°N, 99.95°E
Report Text: VTBU 231600Z 24002KT 3000 BR FEW020 BKN300 26/24 Q1012 A2990
Loading
Personal Weather Stations






























Interactive Weather Map New forecast layout! Learn more

10-Day Weather Forecast

Advertisements
Track Severe Weather on mobile